Rogue Valley International Medford Airport
KMFR : rendu visible

Aérodrome :











RETROUVEZ-NOUS SUR...

 
LOGIN :

S'inscrire | Disclaimer

   EN    FR    IT 

 









Légende :    VFR   VFR Marginal   IFR   IFR Intensif   IFR Très Intensif
Visi : 
Plafond : 
>= 8 km
>= 3000ft
5 à 8 km
1000 à 3000 ft
1500m à 5 km
500 à 1000 ft
800 à 1500m
200 à 500 ft
< 800m
< 200 ft
Symboles :   Orages  Brouillard  Fortes neiges  Fortes précipitations  Vent > 20 kt






- Altitude de l'aérodrome : 1335 ft
- Code IATA : MFR


KMFR - Rogue Valley International Medford

DERNIER METAR :
  • 100753Z AUTO 00000KT 1/4SM R14/2000V2400FT FG VV002 01/01 A3022 RMK AO2 SLP239 T00110006 400890000

METARs EXPIRÉS :
  • 100740Z AUTO 01003KT 1/4SM R14/2000V2200FT FG VV002 01/01 A3022 RMK AO2 T00110006
  • 100727Z AUTO 00000KT 3/4SM R14/2200V5500FT BR OVC002 02/01 A3021 RMK AO2 T00170011
  • 100716Z AUTO 00000KT 1 1/2SM R14/4000VP6000FT BR OVC002 01/01 A3022 RMK AO2 T00110011
  • 100653Z AUTO 00000KT 6SM R14/2600V3500FT BR OVC003 01/00 A3022 RMK AO2 SLP242 T00060000
  • 100630Z AUTO 01003KT 1/4SM R14/1200V3500FT FG VV003 01/01 A3022 RMK AO2 T00110006
  • 100621Z AUTO 33003KT 3/4SM R14/1200VP6000FT BR BKN003 01/00 A3022 RMK AO2 T00110000
  • 100553Z AUTO 00000KT 6SM BR FEW003 02/00 A3022 RMK AO2 SLP242 T00170000 10089 20006 51001

TAF KMFR
Valide du 10 à 06h jusqu'au 11 à 06h UTC


100621Z 1006/1106 00000KT 1/4SM FG VV002
FM101800 00000KT 4SM BR OVC006
FM102100 00000KT P6SM SCT006 SCT020 OVC080
FM110000 VRB02KT P6SM -RA SCT030 OVC040



MET'MAP, la Météo Aéronautique d'un coup d'oeil ! - Copyright ORBIFLY Décembre 2007 - Disclaimer

ORBIFLY MET'MAP TEAM :

Programmation & Développement : Alexandra Zaïnal
Sur une idée originale de : Baudouin d'Aumeries
Assistance à la programmation : Marc-Olivier Méhu
Soutien technique & logistique : Manuel Goepfert

Contact : metmap@orbifly.com




SOURCES & CREDITS :

   NOAA       Earth
Advisory